Time;durP1;ratioP1;P1;durP2;ratioP2;P2;SDS_P1;SDS_P2;PMS_P1;PMS_P2;Temp;Humidity;BMP_temperature;BMP_pressure;BME280_temperature;BME280_humidity;BME280_pressure;Samples;Min_cycle;Max_cycle;Signal;HPM_P1;HPM_P2
2023/03/25 00:02:06;;;;;;;23.00;19.17;;;;;;;10.93;100.00;100046.84;5005302;28;20042;-70
2023/03/25 00:04:34;;;;;;;26.98;20.20;;;;;;;11.57;100.00;100175.06;5006980;28;20030;-70
2023/03/25 00:07:00;;;;;;;30.00;20.30;;;;;;;11.64;100.00;100180.28;5003153;28;20054;-71
2023/03/25 00:09:25;;;;;;;26.05;19.13;;;;;;;11.36;100.00;100138.44;5004070;28;20046;-70
2023/03/25 00:11:51;;;;;;;28.80;20.52;;;;;;;11.44;100.00;100164.66;5006665;28;20517;-71
2023/03/25 00:14:18;;;;;;;28.58;20.23;;;;;;;10.34;100.00;100026.22;5006502;28;20053;-69
2023/03/25 00:16:47;;;;;;;27.00;21.02;;;;;;;11.12;100.00;100128.97;5006848;28;20042;-71
2023/03/25 00:19:15;;;;;;;26.85;20.67;;;;;;;11.40;100.00;100145.41;5006766;28;20042;-72
2023/03/25 00:21:44;;;;;;;28.90;19.15;;;;;;;11.10;100.00;100152.63;5006060;28;20046;-72
2023/03/25 00:24:16;;;;;;;33.58;21.08;;;;;;;10.44;100.00;100032.31;5000371;28;20165;-71
2023/03/25 00:26:43;;;;;;;25.30;20.35;;;;;;;10.99;100.00;100100.19;5000610;28;20046;-71
2023/03/25 00:29:08;;;;;;;29.42;19.92;;;;;;;11.24;100.00;100146.41;5006945;28;20053;-71
2023/03/25 00:31:34;;;;;;;25.33;20.35;;;;;;;11.24;100.00;100142.03;5006527;28;20042;-72
2023/03/25 00:34:00;;;;;;;29.58;19.75;;;;;;;10.43;100.00;100017.44;5006467;28;20478;-70
2023/03/25 00:36:25;;;;;;;28.92;20.83;;;;;;;10.54;100.00;100026.13;5005776;28;20058;-72
2023/03/25 00:38:51;;;;;;;29.25;21.42;;;;;;;10.85;100.00;100117.78;5004487;28;20100;-72
2023/03/25 00:41:24;;;;;;;27.17;18.77;;;;;;;11.11;100.00;100140.38;5002597;28;20062;-72
2023/03/25 00:43:58;;;;;;;28.92;22.70;;;;;;;10.92;100.00;100131.75;5000931;28;20109;-72
2023/03/25 00:46:26;;;;;;;25.98;20.27;;;;;;;10.83;100.00;100101.16;5000634;28;20087;-72
2023/03/25 00:48:52;;;;;;;26.73;20.58;;;;;;;10.38;100.00;100020.97;4997271;28;20500;-71
2023/03/25 00:51:20;;;;;;;26.60;20.13;;;;;;;10.07;100.00;99989.66;5001427;28;20129;-71
2023/03/25 00:53:51;;;;;;;25.65;19.05;;;;;;;10.11;100.00;100010.59;4997760;28;20038;-71
2023/03/25 00:56:17;;;;;;;31.58;23.70;;;;;;;10.76;100.00;100115.19;5001638;28;20045;-74
2023/03/25 00:58:43;;;;;;;33.28;25.13;;;;;;;10.40;100.00;100074.31;5009421;28;20034;-71
2023/03/25 01:01:14;;;;;;;35.67;27.77;;;;;;;9.69;100.00;99969.69;5009423;28;20057;-71
2023/03/25 01:03:42;;;;;;;34.25;27.42;;;;;;;9.85;100.00;99968.75;5009769;28;20038;-71
2023/03/25 01:06:12;;;;;;;34.67;26.92;;;;;;;10.64;100.00;100096.91;5004602;28;20046;-72
2023/03/25 01:08:39;;;;;;;42.45;29.30;;;;;;;10.53;100.00;100079.44;5009519;28;20123;-71
2023/03/25 01:11:06;;;;;;;40.72;30.30;;;;;;;9.88;100.00;99984.47;5008287;28;20037;-71
2023/03/25 01:13:32;;;;;;;40.15;34.05;;;;;;;9.89;100.00;99980.97;5009701;28;20034;-70
2023/03/25 01:15:58;;;;;;;54.22;34.15;;;;;;;10.28;100.00;100083.06;5009662;28;20128;-70
2023/03/25 01:18:23;;;;;;;68.88;47.00;;;;;;;9.52;100.00;100046.56;5003428;28;20137;-71
2023/03/25 01:20:49;;;;;;;69.80;48.25;;;;;;;9.44;100.00;100045.72;5001423;28;20038;-70
2023/03/25 01:23:14;;;;;;;70.35;49.97;;;;;;;9.33;100.00;100025.66;5015623;28;20431;-70
2023/03/25 01:25:40;;;;;;;76.28;48.33;;;;;;;8.69;100.00;99917.56;5007898;28;20022;-70
2023/03/25 01:28:06;;;;;;;73.22;47.55;;;;;;;9.11;100.00;99956.75;5009151;28;20045;-71
2023/03/25 01:30:31;;;;;;;71.68;48.95;;;;;;;9.24;100.00;99982.03;5008729;28;20395;-71
2023/03/25 01:32:57;;;;;;;69.53;49.17;;;;;;;9.22;100.00;99983.78;5007583;28;20038;-70
2023/03/25 01:35:24;;;;;;;85.60;51.70;;;;;;;8.40;100.00;99826.91;5008946;28;20042;-70
2023/03/25 01:37:53;;;;;;;85.63;52.80;;;;;;;9.20;100.00;99975.06;5002248;28;20054;-73
2023/03/25 01:40:22;;;;;;;75.18;49.63;;;;;;;9.46;100.00;99954.94;5007379;28;20084;-71
2023/03/25 01:42:48;;;;;;;44.35;35.15;;;;;;;9.73;100.00;99985.41;5008127;28;20053;-71
2023/03/25 01:45:19;;;;;;;54.80;37.00;;;;;;;9.65;100.00;99995.03;5008939;28;20041;-71
2023/03/25 01:47:48;;;;;;;64.55;41.42;;;;;;;9.61;100.00;99974.09;5008407;28;20364;-71
2023/03/25 01:50:16;;;;;;;61.38;42.97;;;;;;;9.54;100.00;99954.03;5007591;28;20050;-71
2023/03/25 01:52:46;;;;;;;54.25;38.78;;;;;;;8.88;100.00;99845.16;5002636;28;20034;-70
2023/03/25 01:55:12;;;;;;;70.95;42.15;;;;;;;9.08;100.00;99874.75;5007535;28;20073;-71
2023/03/25 01:57:42;;;;;;;62.40;42.22;;;;;;;9.54;100.00;99960.16;5006393;28;20141;-71
2023/03/25 02:00:09;;;;;;;58.72;39.00;;;;;;;9.40;100.00;99948.84;5005283;28;20038;-70
2023/03/25 02:02:39;;;;;;;51.58;37.03;;;;;;;8.76;100.00;99830.34;5007132;28;20145;-70
2023/03/25 02:05:16;;;;;;;61.92;42.05;;;;;;;9.38;100.00;99953.22;5006410;28;20048;-73
2023/03/25 02:07:46;;;;;;;52.67;38.42;;;;;;;8.85;100.00;99877.44;5008424;28;20037;-71
2023/03/25 02:10:13;;;;;;;61.63;40.50;;;;;;;9.35;100.00;99935.75;4988724;28;20066;-71
2023/03/25 02:12:39;;;;;;;56.58;39.30;;;;;;;8.96;100.00;99856.47;5001362;28;20045;-72
2023/03/25 02:15:07;;;;;;;59.70;39.22;;;;;;;8.64;100.00;99823.41;5007733;28;20042;-73
2023/03/25 02:17:46;;;;;;;64.95;38.45;;;;;;;8.66;100.00;99841.69;5005858;28;20431;-73
2023/03/25 02:20:54;;;;;;;56.78;38.78;;;;;;;8.58;100.00;99810.31;5007093;28;20215;-73
2023/03/25 02:23:40;;;;;;;56.72;37.28;;;;;;;8.28;100.00;99799.88;4988408;28;20045;-72
2023/03/25 02:26:35;;;;;;;51.78;34.83;;;;;;;9.17;100.00;99925.34;5004927;28;20029;-71
2023/03/25 02:29:06;;;;;;;48.28;37.15;;;;;;;9.21;100.00;99935.78;5007999;28;20066;-71
2023/03/25 02:31:47;;;;;;;56.40;40.58;;;;;;;9.19;100.00;99942.78;5008789;28;20476;-73
2023/03/25 02:34:38;;;;;;;57.40;39.88;;;;;;;9.37;100.00;99923.53;5003302;28;20800;-71
2023/03/25 02:37:19;;;;;;;64.15;42.53;;;;;;;9.38;100.00;99914.78;5007854;28;20081;-71
2023/03/25 02:39:53;;;;;;;47.80;34.22;;;;;;;9.16;100.00;99907.91;5007292;28;20049;-73
2023/03/25 02:42:24;;;;;;;44.22;32.78;;;;;;;9.08;100.00;99897.44;5006057;28;20077;-72
2023/03/25 02:45:00;;;;;;;54.83;34.97;;;;;;;9.04;100.00;99903.56;5007586;28;20120;-71
2023/03/25 02:47:41;;;;;;;53.63;38.42;;;;;;;8.54;100.00;99792.91;5007318;28;20053;-71
2023/03/25 02:50:16;;;;;;;50.13;36.35;;;;;;;8.66;100.00;99795.50;5003187;28;20072;-70
2023/03/25 02:52:52;;;;;;;57.58;38.75;;;;;;;9.15;100.00;99866.88;5007727;28;20041;-70
2023/03/25 02:55:20;;;;;;;57.22;40.30;;;;;;;9.02;100.00;99869.53;5003491;28;20789;-73
2023/03/25 02:57:51;;;;;;;61.28;38.08;;;;;;;8.32;100.00;99762.41;5005392;28;20049;-71
2023/03/25 03:00:22;;;;;;;59.35;38.00;;;;;;;8.81;100.00;99875.69;5002959;28;20076;-72
2023/03/25 03:02:58;;;;;;;64.18;39.25;;;;;;;8.78;100.00;99870.47;5006446;28;20050;-72
2023/03/25 03:05:30;;;;;;;53.17;37.30;;;;;;;9.03;100.00;99905.28;5006915;28;20128;-72
2023/03/25 03:08:13;;;;;;;47.40;37.83;;;;;;;8.60;100.00;99794.66;4999675;28;20030;-72
2023/03/25 03:10:44;;;;;;;;;;;;;;;8.94;100.00;99891.34;5007735;28;20037;-69
2023/03/25 03:13:31;;;;;;;64.20;40.67;;;;;;;8.77;100.00;99871.31;5005614;28;19929;-71
2023/03/25 03:15:57;;;;;;;60.90;39.58;;;;;;;8.84;100.00;99891.38;5003802;28;20484;-72
2023/03/25 03:18:36;;;;;;;70.13;42.20;;;;;;;8.42;100.00;99788.56;5006749;28;20049;-72
2023/03/25 03:21:10;;;;;;;71.13;48.40;;;;;;;8.86;100.00;99853.00;5007242;28;20049;-72
2023/03/25 03:24:03;;;;;;;78.03;49.17;;;;;;;8.23;100.00;99761.53;5006209;28;20073;-71
2023/03/25 03:26:42;;;;;;;59.78;45.88;;;;;;;9.06;100.00;99870.38;5005894;28;20045;-72
2023/03/25 03:29:28;;;;;;;73.10;48.03;;;;;;;8.28;100.00;99765.91;5006176;28;20076;-70
2023/03/25 03:32:05;;;;;;;76.18;53.30;;;;;;;7.75;100.00;99725.84;5005987;28;20137;-70
2023/03/25 03:34:41;;;;;;;75.15;51.92;;;;;;;8.60;100.00;99839.97;5006629;28;20402;-72
2023/03/25 03:37:10;;;;;;;82.47;56.47;;;;;;;7.82;100.00;99772.88;5005173;28;20062;-71
2023/03/25 03:39:37;;;;;;;81.25;55.20;;;;;;;7.82;100.00;99780.72;5006062;28;20046;-71
2023/03/25 03:42:09;;;;;;;76.53;53.30;;;;;;;8.09;100.00;99770.28;5006173;28;20161;-72
2023/03/25 03:44:38;;;;;;;80.70;55.05;;;;;;;7.69;100.00;99681.47;5004900;28;20071;-70
2023/03/25 03:47:12;;;;;;;81.03;51.85;;;;;;;8.33;100.00;99788.53;5005928;28;20072;-70
2023/03/25 03:49:44;;;;;;;73.90;49.92;;;;;;;8.59;100.00;99796.41;5004291;28;20117;-70
2023/03/25 03:52:15;;;;;;;73.32;53.67;;;;;;;8.15;100.00;99752.84;5006317;28;20049;-70
2023/03/25 03:54:53;;;;;;;76.07;51.67;;;;;;;8.10;100.00;99762.44;5008074;28;20501;-72
2023/03/25 03:57:24;;;;;;;76.88;54.80;;;;;;;7.97;100.00;99774.63;5004472;28;20058;-71
2023/03/25 04:00:05;;;;;;;81.30;51.90;;;;;;;8.13;100.00;99762.44;5004865;28;20103;-71
2023/03/25 04:02:41;;;;;;;71.88;49.92;;;;;;;8.51;100.00;99764.16;5005808;28;20038;-71
2023/03/25 04:05:11;;;;;;;74.40;50.65;;;;;;;7.77;100.00;99628.38;5006507;28;20049;-71
2023/03/25 04:07:53;;;;;;;59.22;42.65;;;;;;;8.30;100.00;99715.34;5006628;28;20579;-73
2023/03/25 04:10:40;;;;;;;64.30;44.28;;;;;;;8.35;100.00;99751.94;5006755;28;20045;-71
2023/03/25 04:13:10;;;;;;;56.00;42.92;;;;;;;8.25;100.00;99756.31;5006181;28;20096;-72
2023/03/25 04:15:37;;;;;;;65.47;46.92;;;;;;;8.13;100.00;99746.75;5000198;28;20034;-71
2023/03/25 04:18:03;;;;;;;71.65;47.22;;;;;;;7.77;100.00;99645.75;4997731;28;20052;-71
2023/03/25 04:20:33;;;;;;;62.53;43.92;;;;;;;7.72;100.00;99671.88;4999705;28;20039;-70
2023/03/25 04:22:59;;;;;;;67.05;49.22;;;;;;;8.38;100.00;99772.84;5003521;28;20409;-71
2023/03/25 04:25:25;;;;;;;66.07;49.22;;;;;;;7.70;100.00;99672.75;5006326;28;20096;-71
2023/03/25 04:27:52;;;;;;;69.30;50.10;;;;;;;8.45;100.00;99787.69;4997353;28;20033;-72
2023/03/25 04:30:18;;;;;;;69.57;48.97;;;;;;;8.06;100.00;99742.41;5003107;28;20045;-72
2023/03/25 04:32:47;;;;;;;74.28;50.05;;;;;;;8.08;100.00;99795.53;5006789;28;20060;-71
2023/03/25 04:35:15;;;;;;;54.53;47.05;;;;;;;7.19;100.00;99638.81;5003984;28;20047;-70
2023/03/25 04:37:44;;;;;;;74.95;50.05;;;;;;;8.25;100.00;99785.06;4990568;28;20491;-70
2023/03/25 04:40:12;;;;;;;59.90;47.50;;;;;;;8.16;100.00;99765.03;4990876;28;20053;-71
2023/03/25 04:42:41;;;;;;;68.53;51.38;;;;;;;8.19;100.00;99770.28;4990532;28;20054;-73
2023/03/25 04:45:13;;;;;;;69.18;46.47;;;;;;;8.40;100.00;99794.66;4990793;28;20046;-72
2023/03/25 04:47:43;;;;;;;66.07;47.17;;;;;;;8.11;100.00;99727.59;4990021;28;20050;-72
2023/03/25 04:50:27;;;;;;;71.95;46.03;;;;;;;8.48;100.00;99779.00;4990400;28;20050;-72
2023/03/25 04:52:53;;;;;;;;;;;;;;;8.21;100.00;99799.88;4986614;28;20026;-70
2023/03/25 04:55:20;;;;;;;60.67;47.03;;;;;;;7.50;100.00;99710.19;4990216;28;20440;-72
2023/03/25 04:57:47;;;;;;;65.95;47.03;;;;;;;7.44;100.00;99667.53;4988404;28;20034;-71
2023/03/25 05:00:14;;;;;;;61.55;42.97;;;;;;;7.29;100.00;99681.44;4986703;28;20047;-72
2023/03/25 05:02:47;;;;;;;57.25;43.63;;;;;;;8.12;100.00;99792.03;4989667;28;20050;-72
2023/03/25 05:05:17;;;;;;;58.90;43.55;;;;;;;7.78;100.00;99687.56;4989530;28;20153;-69
2023/03/25 05:07:48;;;;;;;57.03;40.85;;;;;;;7.87;100.00;99696.28;4988848;28;20112;-70
2023/03/25 05:10:18;;;;;;;58.20;42.40;;;;;;;8.32;100.00;99755.44;4989916;28;20402;-71
2023/03/25 05:12:44;;;;;;;59.47;44.55;;;;;;;8.63;100.00;99811.19;4987475;28;20066;-72
2023/03/25 05:15:10;;;;;;;64.15;44.92;;;;;;;8.83;100.00;99842.53;4982935;28;20065;-72
2023/03/25 05:17:36;;;;;;;67.75;44.83;;;;;;;8.76;100.00;99821.66;4986590;28;20053;-71
2023/03/25 05:20:05;;;;;;;54.90;40.53;;;;;;;8.98;100.00;99862.56;4987957;28;20554;-70
2023/03/25 05:22:31;;;;;;;62.88;44.40;;;;;;;9.01;100.00;99870.44;4990147;28;20114;-71
2023/03/25 05:24:57;;;;;;;58.65;42.13;;;;;;;9.00;100.00;99841.63;4979711;28;20042;-72
2023/03/25 05:27:22;;;;;;;56.85;42.88;;;;;;;9.11;100.00;99859.91;4987661;28;20058;-72
2023/03/25 05:29:48;;;;;;;65.03;45.40;;;;;;;9.07;100.00;99843.34;4982534;28;20054;-71
2023/03/25 05:32:16;;;;;;;63.63;45.78;;;;;;;9.26;100.00;99847.63;4989340;28;20080;-71
2023/03/25 05:34:48;;;;;;;74.30;44.90;;;;;;;8.62;100.00;99728.38;4987346;28;20264;-70
2023/03/25 05:37:13;;;;;;;60.38;44.85;;;;;;;9.57;100.00;99850.13;4989110;28;20089;-70
2023/03/25 05:39:39;;;;;;;60.78;43.83;;;;;;;9.60;100.00;99864.94;4989349;28;20046;-72
2023/03/25 05:42:05;;;;;;;61.50;43.65;;;;;;;9.86;100.00;99865.69;4989120;28;20112;-70
2023/03/25 05:44:30;;;;;;;65.95;43.03;;;;;;;10.55;100.00;99878.31;4991881;28;20490;-71
2023/03/25 05:46:59;;;;;;;58.33;41.60;;;;;;;11.37;100.00;99911.63;5007123;28;20034;-72
2023/03/25 05:49:25;;;;;;;62.78;41.92;;;;;;;11.55;100.00;99821.22;5009378;28;20030;-70
2023/03/25 05:51:54;;;;;;;53.63;42.47;;;;;;;12.27;100.00;99857.00;5008676;28;20450;-71
2023/03/25 05:54:23;;;;;;;52.20;37.17;;;;;;;12.93;100.00;99886.59;5007865;28;20053;-70
2023/03/25 05:56:49;;;;;;;54.03;38.88;;;;;;;13.38;100.00;99897.19;5001406;28;20105;-70
2023/03/25 05:59:15;;;;;;;69.00;40.20;;;;;;;14.17;100.00;100028.34;5008570;28;20054;-71
2023/03/25 06:01:44;;;;;;;87.00;36.67;;;;;;;13.09;100.00;99901.22;5006294;28;20038;-72
2023/03/25 06:04:15;;;;;;;82.13;34.83;;;;;;;14.46;100.00;100043.53;4996045;28;20056;-72
2023/03/25 06:06:41;;;;;;;70.07;32.10;;;;;;;14.22;100.00;100052.84;5008410;28;20137;-71
2023/03/25 06:09:06;;;;;;;47.78;28.70;;;;;;;14.20;100.00;100049.38;5007689;28;20045;-70
2023/03/25 06:11:36;;;;;;;27.52;24.42;;;;;;;14.07;100.00;100036.44;5008748;28;20057;-69
2023/03/25 06:14:06;;;;;;;36.88;23.92;;;;;;;14.14;100.00;100029.25;5002900;28;20046;-70
2023/03/25 06:16:32;;;;;;;26.50;21.10;;;;;;;13.59;100.00;99967.06;5008896;28;20061;-69
2023/03/25 06:18:59;;;;;;;31.58;23.88;;;;;;;14.10;100.00;100038.13;5006989;28;20054;-70
2023/03/25 06:21:31;;;;;;;35.63;21.58;;;;;;;14.07;100.00;100039.06;5003320;28;20054;-71
2023/03/25 06:23:58;;;;;;;30.40;24.08;;;;;;;13.35;100.00;99945.56;5002776;28;20054;-72
2023/03/25 06:26:24;;;;;;;33.00;24.42;;;;;;;14.06;100.00;100054.94;5005125;28;20475;-70
2023/03/25 06:28:50;;;;;;;36.63;24.25;;;;;;;13.85;100.00;100064.13;5005090;28;20065;-69
2023/03/25 06:31:19;;;;;;;32.35;24.95;;;;;;;13.85;100.00;100033.34;5000783;28;20038;-70
2023/03/25 06:33:46;;;;;;;33.72;24.42;;;;;;;13.70;100.00;100052.97;5006505;28;20077;-69
2023/03/25 06:36:17;;;;;;;29.38;23.23;;;;;;;13.79;100.00;100043.13;5006289;28;20565;-69
2023/03/25 06:38:44;;;;;;;41.72;23.58;;;;;;;13.37;100.00;99958.69;5005887;28;20053;-74
2023/03/25 06:41:10;;;;;;;31.90;21.92;;;;;;;13.27;100.00;99945.72;5001547;28;20049;-72
2023/03/25 06:43:36;;;;;;;39.75;22.30;;;;;;;13.24;100.00;99979.97;5001003;28;20390;-71
2023/03/25 06:46:01;;;;;;;27.25;20.00;;;;;;;13.25;100.00;99959.75;5004304;28;20049;-73
2023/03/25 06:48:27;;;;;;;28.05;19.75;;;;;;;13.39;100.00;100035.97;5006043;28;20141;-74
2023/03/25 06:50:52;;;;;;;25.23;18.77;;;;;;;13.71;100.00;100030.97;5000824;28;20117;-70
2023/03/25 06:53:18;;;;;;;21.17;17.65;;;;;;;13.22;100.00;99944.00;5006656;28;20568;-70
2023/03/25 06:55:43;;;;;;;34.65;18.70;;;;;;;13.78;100.00;100017.69;5006711;28;20042;-70
2023/03/25 06:58:10;;;;;;;29.88;18.60;;;;;;;13.86;100.00;100024.53;5002863;28;20498;-71
2023/03/25 07:00:35;;;;;;;22.85;17.92;;;;;;;13.99;100.00;100056.81;5004156;28;20056;-69
2023/03/25 07:03:01;;;;;;;32.60;19.35;;;;;;;14.05;100.00;100046.16;5003820;28;21096;-69
2023/03/25 07:05:27;;;;;;;22.92;16.02;;;;;;;14.09;100.00;100041.66;5006246;28;20046;-69
2023/03/25 07:07:52;;;;;;;23.25;18.65;;;;;;;13.82;100.00;100033.41;5003011;28;20532;-70
2023/03/25 07:10:18;;;;;;;22.05;17.67;;;;;;;13.98;100.00;100052.44;5007303;28;20038;-71
2023/03/25 07:12:43;;;;;;;24.67;16.98;;;;;;;14.20;100.00;100044.97;5007348;28;20042;-70
2023/03/25 07:15:09;;;;;;;21.65;16.05;;;;;;;14.09;100.00;100020.56;5006842;28;20491;-70
2023/03/25 07:17:35;;;;;;;21.05;17.48;;;;;;;13.67;100.00;99939.66;5006710;28;20502;-69
2023/03/25 07:20:00;;;;;;;29.73;17.98;;;;;;;13.88;100.00;99950.66;5002023;28;20073;-69
2023/03/25 07:22:25;;;;;;;27.42;18.77;;;;;;;13.87;100.00;99938.38;5006430;28;20053;-73
2023/03/25 07:24:51;;;;;;;22.95;18.30;;;;;;;13.29;100.00;99835.84;5006535;28;20123;-70
2023/03/25 07:27:17;;;;;;;21.92;17.15;;;;;;;14.59;100.00;100036.25;5006442;28;20046;-70
2023/03/25 07:29:43;;;;;;;27.67;19.55;;;;;;;14.50;100.00;100011.75;5006651;28;20778;-70
2023/03/25 07:32:08;;;;;;;26.73;20.80;;;;;;;13.96;100.00;99942.59;5006815;28;20184;-70
2023/03/25 07:34:34;;;;;;;29.83;18.50;;;;;;;13.73;100.00;99920.19;5004982;28;20036;-72
2023/03/25 07:36:59;;;;;;;22.00;17.10;;;;;;;14.03;100.00;99929.22;5005128;28;20418;-72
2023/03/25 07:39:25;;;;;;;34.25;18.88;;;;;;;14.15;100.00;99915.75;5004843;28;20087;-72
2023/03/25 07:41:51;;;;;;;24.13;18.35;;;;;;;14.92;100.00;100029.31;5003259;28;20038;-71
2023/03/25 07:44:19;;;;;;;29.45;19.33;;;;;;;14.84;100.00;100021.53;5005164;28;20052;-73
2023/03/25 07:46:45;;;;;;;23.60;18.55;;;;;;;14.67;100.00;99981.47;5001028;28;20073;-69
2023/03/25 07:49:10;;;;;;;23.88;18.95;;;;;;;14.61;100.00;100037.97;5000559;28;20678;-73
2023/03/25 07:51:36;;;;;;;23.90;16.70;;;;;;;14.77;100.00;100033.16;5003724;28;20153;-70
2023/03/25 07:54:01;;;;;;;32.90;18.42;;;;;;;14.57;100.00;99975.56;5005554;28;20045;-70
2023/03/25 07:56:27;;;;;;;32.33;19.85;;;;;;;15.19;100.00;100035.69;5002847;28;20048;-70
2023/03/25 07:58:52;;;;;;;24.80;19.08;;;;;;;14.99;100.00;99989.50;5002217;28;20036;-70
2023/03/25 08:01:18;;;;;;;35.70;19.92;;;;;;;14.85;100.00;99941.41;5004476;28;20543;-70
2023/03/25 08:03:44;;;;;;;21.63;16.73;;;;;;;14.89;98.50;99923.69;5002146;28;20065;-70
2023/03/25 08:06:09;;;;;;;22.52;16.58;;;;;;;15.67;94.30;100035.31;5005074;28;20054;-70
2023/03/25 08:08:35;;;;;;;32.30;17.90;;;;;;;15.75;90.27;100035.13;5006212;28;20070;-70
2023/03/25 08:11:00;;;;;;;24.10;17.13;;;;;;;15.04;98.25;99907.47;5005970;28;20033;-70
2023/03/25 08:13:26;;;;;;;22.23;17.40;;;;;;;15.79;92.44;100021.78;5002808;28;20049;-69
2023/03/25 08:15:52;;;;;;;18.77;16.60;;;;;;;15.95;89.92;100029.31;5001654;28;20799;-71
2023/03/25 08:18:18;;;;;;;28.67;20.17;;;;;;;15.50;90.51;99945.88;5000551;28;20116;-73
2023/03/25 08:20:44;;;;;;;22.75;18.50;;;;;;;15.57;86.06;99931.56;4997540;28;20586;-69
2023/03/25 08:23:11;;;;;;;27.80;18.38;;;;;;;15.62;84.43;99929.66;4998989;28;20070;-71
2023/03/25 08:25:37;;;;;;;26.23;20.20;;;;;;;16.40;83.83;100012.97;5003209;28;20121;-72
2023/03/25 08:28:05;;;;;;;37.22;22.63;;;;;;;15.81;82.44;99903.56;5006362;28;20042;-71
2023/03/25 08:30:37;;;;;;;29.70;20.17;;;;;;;16.62;81.39;100006.13;5002874;28;20406;-71
2023/03/25 08:33:06;;;;;;;27.40;18.92;;;;;;;16.76;76.21;100010.94;5004408;28;20552;-73
2023/03/25 08:35:33;;;;;;;29.65;18.55;;;;;;;16.85;75.00;99996.59;5005562;28;20188;-72
2023/03/25 08:38:00;;;;;;;26.75;18.38;;;;;;;16.75;68.74;99915.63;5002679;28;20033;-70
2023/03/25 08:40:26;;;;;;;24.30;15.55;;;;;;;17.09;65.51;99984.28;5005235;28;20227;-70
2023/03/25 08:42:52;;;;;;;23.38;16.20;;;;;;;16.75;65.57;99892.66;5005565;28;20402;-71
2023/03/25 08:45:17;;;;;;;18.55;15.40;;;;;;;16.75;62.35;99890.00;4996401;28;20050;-69
2023/03/25 08:47:44;;;;;;;21.67;13.07;;;;;;;17.24;64.36;99964.34;5003969;28;20080;-70
2023/03/25 08:50:10;;;;;;;15.75;11.40;;;;;;;17.02;63.56;99941.25;5005681;28;20072;-72
2023/03/25 08:52:36;;;;;;;16.10;13.13;;;;;;;17.26;59.25;99981.09;5005927;28;20490;-69
2023/03/25 08:55:01;;;;;;;19.95;12.70;;;;;;;16.18;58.92;99801.00;5001745;28;20323;-70
2023/03/25 08:57:27;;;;;;;16.35;13.18;;;;;;;17.19;58.68;99964.53;4995167;28;20502;-70
2023/03/25 08:59:52;;;;;;;22.92;13.15;;;;;;;17.37;58.66;99970.97;5003413;28;20786;-69
2023/03/25 09:02:18;;;;;;;21.15;13.80;;;;;;;17.53;58.90;99992.50;5002198;28;20074;-71
2023/03/25 09:04:47;;;;;;;30.92;13.13;;;;;;;17.65;61.14;99969.97;5000535;28;20033;-73
2023/03/25 09:07:12;;;;;;;19.85;12.57;;;;;;;17.62;59.26;99986.00;4994043;28;20050;-70
2023/03/25 09:09:39;;;;;;;20.67;12.95;;;;;;;17.33;57.92;99939.31;4999666;28;20069;-72
2023/03/25 09:12:06;;;;;;;22.77;12.75;;;;;;;17.52;58.42;99962.47;5002956;28;20042;-70
2023/03/25 09:14:31;;;;;;;20.98;14.07;;;;;;;17.28;57.20;99892.59;5003883;28;20140;-72
2023/03/25 09:16:57;;;;;;;17.40;13.13;;;;;;;17.70;56.50;99941.50;5005055;28;20517;-71
2023/03/25 09:19:22;;;;;;;28.80;14.27;;;;;;;17.36;59.02;99886.16;5008145;28;20026;-70
2023/03/25 09:21:48;;;;;;;22.95;13.52;;;;;;;17.91;56.17;99961.97;5006665;28;20042;-72
2023/03/25 09:24:13;;;;;;;19.27;14.52;;;;;;;17.42;57.75;99860.28;5004836;28;20062;-70
2023/03/25 09:26:39;;;;;;;20.48;15.45;;;;;;;18.10;58.24;99963.94;4984416;28;20057;-71
2023/03/25 09:29:05;;;;;;;20.27;14.88;;;;;;;17.56;55.70;99862.41;4986622;28;20086;-70
2023/03/25 09:31:31;;;;;;;28.90;17.83;;;;;;;18.20;58.17;99957.31;4983328;28;20189;-72
2023/03/25 09:33:56;;;;;;;20.95;13.07;;;;;;;17.71;56.33;99858.31;4984940;28;20123;-69
2023/03/25 09:36:22;;;;;;;17.02;13.90;;;;;;;17.65;54.72;99850.56;4982077;28;20074;-71
2023/03/25 09:38:47;;;;;;;24.75;14.20;;;;;;;18.34;54.62;99955.00;4981373;28;20046;-70
2023/03/25 09:41:28;;;;;;;16.52;12.48;;;;;;;18.09;55.04;99870.09;4988551;28;20046;-71
2023/03/25 09:44:23;;;;;;;19.27;13.88;;;;;;;18.14;53.68;99857.53;4980623;28;20208;-71
2023/03/25 09:46:49;;;;;;;21.92;13.05;;;;;;;18.54;56.86;99914.34;4998197;28;20210;-70
2023/03/25 09:49:22;;;;;;;16.67;12.93;;;;;;;18.77;55.13;99925.84;5008111;28;20473;-72
2023/03/25 09:51:49;;;;;;;;;;;;;;;18.71;53.00;99926.94;4996980;28;20050;-70
2023/03/25 09:54:26;;;;;;;14.52;10.65;;;;;;;18.84;50.30;99915.81;5004323;28;19979;-71
2023/03/25 09:56:56;;;;;;;18.50;10.70;;;;;;;18.94;50.57;99914.50;4999041;28;20073;-72
2023/03/25 09:59:24;;;;;;;19.17;10.93;;;;;;;19.12;49.87;99927.00;5004087;28;20038;-71
2023/03/25 10:02:13;;;;;;;18.83;11.48;;;;;;;19.18;48.43;99932.06;5005256;28;20100;-72
2023/03/25 10:04:56;;;;;;;28.40;11.15;;;;;;;19.20;48.97;99929.34;5023096;28;20033;-70
2023/03/25 10:07:31;;;;;;;22.02;13.35;;;;;;;18.65;49.71;99820.88;4984364;28;20524;-72
2023/03/25 10:10:05;;;;;;;21.63;12.80;;;;;;;19.26;50.78;99915.78;4996477;28;20042;-70
2023/03/25 10:12:37;;;;;;;16.63;12.80;;;;;;;19.21;51.41;99914.25;5006683;28;20073;-70
2023/03/25 10:15:08;;;;;;;20.73;12.93;;;;;;;19.19;50.60;99909.84;5006114;28;20093;-72
2023/03/25 10:17:58;;;;;;;19.23;11.65;;;;;;;19.17;50.13;99911.75;5002768;28;20053;-71
2023/03/25 10:20:40;;;;;;;17.58;12.30;;;;;;;18.75;50.42;99808.06;4997340;28;20050;-70
2023/03/25 10:23:36;;;;;;;15.15;11.00;;;;;;;19.21;49.75;99900.94;4999036;28;20478;-71
2023/03/25 10:26:10;;;;;;;17.58;13.27;;;;;;;18.77;49.98;99807.09;4999819;28;20553;-70
2023/03/25 10:28:42;;;;;;;18.38;12.30;;;;;;;19.35;50.01;99886.09;5004087;28;20516;-71
2023/03/25 10:31:14;;;;;;;15.10;11.13;;;;;;;19.65;49.65;99890.97;5005327;28;20121;-69
2023/03/25 10:34:05;;;;;;;24.52;11.20;;;;;;;19.82;49.29;99868.91;5007974;28;20044;-70
2023/03/25 10:36:39;;;;;;;28.33;10.05;;;;;;;19.84;48.54;99812.94;4997004;28;20049;-72
2023/03/25 10:39:17;;;;;;;13.82;9.57;;;;;;;20.22;47.55;99835.91;5000306;28;20045;-70
2023/03/25 10:41:49;;;;;;;11.55;8.65;;;;;;;19.86;46.77;99779.97;5007636;28;20041;-70
2023/03/25 10:44:14;;;;;;;10.98;8.48;;;;;;;20.89;46.24;99873.47;5002543;28;20047;-70
2023/03/25 10:46:46;;;;;;;10.52;8.98;;;;;;;21.01;45.25;99845.31;5008143;28;20179;-74
2023/03/25 10:49:18;;;;;;;12.68;9.32;;;;;;;20.88;45.87;99751.72;5005653;28;20454;-70
2023/03/25 10:51:45;;;;;;;20.08;10.20;;;;;;;21.21;45.19;99765.09;5003867;28;20070;-71
2023/03/25 10:54:13;;;;;;;14.57;8.93;;;;;;;21.76;44.45;99840.44;5006889;28;20119;-72
2023/03/25 10:56:42;;;;;;;11.27;8.38;;;;;;;21.49;45.90;99828.53;5003555;28;20103;-71
2023/03/25 10:59:18;;;;;;;21.05;11.23;;;;;;;21.26;46.81;99736.34;5006987;28;20541;-71
2023/03/25 11:01:44;;;;;;;29.38;10.90;;;;;;;21.35;46.79;99795.47;5007726;28;20498;-70
2023/03/25 11:04:17;;;;;;;17.30;7.40;;;;;;;21.13;45.49;99823.31;5006755;28;20041;-74
2023/03/25 11:06:54;;;;;;;9.88;7.10;;;;;;;21.26;44.59;99804.84;5004187;28;20030;-70
2023/03/25 11:09:24;;;;;;;11.25;6.82;;;;;;;20.95;42.66;99825.13;5004272;28;20042;-71
2023/03/25 11:11:52;;;;;;;9.60;6.90;;;;;;;20.97;43.02;99788.59;5006759;28;20058;-71
2023/03/25 11:14:26;;;;;;;9.38;6.40;;;;;;;20.75;43.02;99735.53;5006684;28;20120;-70
2023/03/25 11:17:02;;;;;;;13.15;8.20;;;;;;;20.71;42.44;99709.97;5001345;28;20121;-72
2023/03/25 11:19:35;;;;;;;18.08;7.88;;;;;;;20.63;42.96;99696.19;4998839;28;20026;-71
2023/03/25 11:22:09;;;;;;;16.10;8.57;;;;;;;21.26;42.69;99781.69;4999955;28;20156;-71
2023/03/25 11:24:42;;;;;;;10.02;6.93;;;;;;;20.91;42.69;99794.25;4998959;28;20517;-71
2023/03/25 11:27:09;;;;;;;10.77;7.23;;;;;;;20.03;42.79;99688.59;5002631;28;20034;-71